createdAt,value
2022-12-22T00:01:50.702Z,0.90
2022-12-22T00:04:35.589Z,1.17
2022-12-22T00:07:21.556Z,1.30
2022-12-22T00:10:07.243Z,1.20
2022-12-22T00:12:53.028Z,0.70
2022-12-22T00:15:38.729Z,0.93
2022-12-22T00:18:24.535Z,1.10
2022-12-22T00:21:10.012Z,1.10
2022-12-22T00:23:55.462Z,0.90
2022-12-22T00:26:41.308Z,1.17
2022-12-22T00:29:28.079Z,0.70
2022-12-22T00:32:14.038Z,0.60
2022-12-22T00:34:59.365Z,0.93
2022-12-22T00:37:48.164Z,0.50
2022-12-22T00:40:34.441Z,0.63
2022-12-22T00:43:20.563Z,0.87
2022-12-22T00:46:06.533Z,0.70
2022-12-22T00:48:52.068Z,0.60
2022-12-22T00:51:37.639Z,0.50
2022-12-22T00:54:23.704Z,0.40
2022-12-22T00:57:10.281Z,0.47
2022-12-22T00:59:57.224Z,0.40
2022-12-22T01:02:43.184Z,0.50
2022-12-22T01:05:28.770Z,0.20
2022-12-22T01:08:15.054Z,0.30
2022-12-22T01:11:00.930Z,0.60
2022-12-22T01:13:46.549Z,0.30
2022-12-22T01:16:32.871Z,0.30
2022-12-22T01:19:19.200Z,0.30
2022-12-22T01:22:05.876Z,0.23
2022-12-22T01:24:51.728Z,0.30
2022-12-22T01:27:37.715Z,0.57
2022-12-22T01:30:23.394Z,0.60
2022-12-22T01:33:09.281Z,0.50
2022-12-22T01:35:55.051Z,0.50
2022-12-22T01:38:40.824Z,0.73
2022-12-22T01:41:26.359Z,0.80
2022-12-22T01:44:12.615Z,0.90
2022-12-22T01:46:58.681Z,0.70
2022-12-22T01:49:46.851Z,0.80
2022-12-22T01:52:32.394Z,0.90
2022-12-22T01:55:18.801Z,1.40
2022-12-22T01:58:04.579Z,0.73
2022-12-22T02:00:50.237Z,0.60
2022-12-22T02:03:36.767Z,1.10
2022-12-22T02:06:23.067Z,0.83
2022-12-22T02:09:08.916Z,1.00
2022-12-22T02:12:09.828Z,0.90
2022-12-22T02:14:58.425Z,0.70
2022-12-22T02:17:56.472Z,0.77
2022-12-22T02:20:51.143Z,0.70
2022-12-22T02:23:45.430Z,0.80
2022-12-22T02:26:49.329Z,0.97
2022-12-22T02:29:35.147Z,0.60
2022-12-22T02:32:20.941Z,0.80
2022-12-22T02:35:06.883Z,0.73
2022-12-22T02:38:13.925Z,0.80
2022-12-22T02:41:09.685Z,0.60
2022-12-22T02:44:04.303Z,0.80
2022-12-22T02:46:50.133Z,0.70
2022-12-22T02:49:38.292Z,0.47
2022-12-22T02:52:24.787Z,0.40
2022-12-22T02:55:11.139Z,0.60
2022-12-22T02:57:56.823Z,0.47
2022-12-22T03:00:42.303Z,0.67
2022-12-22T03:03:28.791Z,0.60
2022-12-22T03:06:14.421Z,0.40
2022-12-22T03:08:59.831Z,0.40
2022-12-22T03:11:45.389Z,0.40
2022-12-22T03:14:31.210Z,0.50
2022-12-22T03:17:17.055Z,0.40
2022-12-22T03:20:02.915Z,0.33
2022-12-22T03:22:48.598Z,0.30
2022-12-22T03:25:35.262Z,0.40
2022-12-22T03:28:02.813Z,0.30
2022-12-22T03:30:31.100Z,0.30
2022-12-22T03:32:58.673Z,0.20
2022-12-22T03:35:26.198Z,0.30
2022-12-22T03:37:54.497Z,0.40
2022-12-22T03:40:22.362Z,0.20
2022-12-22T03:43:08.042Z,0.10
2022-12-22T03:45:54.256Z,0.10
2022-12-22T03:48:21.783Z,0.20
2022-12-22T03:50:50.073Z,0.20
2022-12-22T03:53:17.646Z,0.20
2022-12-22T03:55:45.172Z,0.40
2022-12-22T03:58:13.474Z,0.20
2022-12-22T04:00:41.407Z,0.10
2022-12-22T04:03:09.028Z,0.30
2022-12-22T04:05:36.480Z,0.30
2022-12-22T04:08:04.777Z,0.33
2022-12-22T04:10:50.536Z,0.40
2022-12-22T04:13:19.105Z,0.40
2022-12-22T04:15:46.635Z,0.53
2022-12-22T04:18:14.170Z,0.33
2022-12-22T04:20:42.001Z,0.75
2022-12-22T04:23:09.511Z,0.30
2022-12-22T04:25:37.039Z,0.90
2022-12-22T04:28:04.597Z,0.20
2022-12-22T04:30:32.123Z,0.40
2022-12-22T04:32:59.697Z,0.30
2022-12-22T04:35:27.263Z,0.23
2022-12-22T04:37:54.794Z,0.60
2022-12-22T04:40:22.330Z,0.30
2022-12-22T04:42:50.680Z,0.20
2022-12-22T04:45:18.206Z,0.33
2022-12-22T04:47:45.721Z,0.57
2022-12-22T04:50:14.060Z,0.30
2022-12-22T04:52:41.584Z,0.30
2022-12-22T04:55:09.286Z,0.50
2022-12-22T04:57:40.463Z,0.30
2022-12-22T05:00:04.349Z,0.40
2022-12-22T05:02:32.015Z,0.90
2022-12-22T05:04:59.449Z,0.70
2022-12-22T05:07:26.974Z,0.47
2022-12-22T05:09:54.517Z,0.67
2022-12-22T05:12:40.218Z,0.97
2022-12-22T05:15:07.957Z,0.40
2022-12-22T05:17:35.495Z,0.60
2022-12-22T05:20:04.091Z,0.40
2022-12-22T05:22:31.614Z,0.40
2022-12-22T05:24:59.150Z,0.53
2022-12-22T05:27:26.755Z,0.90
2022-12-22T05:29:55.047Z,0.93
2022-12-22T05:32:22.573Z,0.97
2022-12-22T05:34:51.203Z,0.60
2022-12-22T05:37:18.971Z,1.03
2022-12-22T05:39:46.501Z,1.30
2022-12-22T05:42:14.067Z,0.97
2022-12-22T05:44:41.592Z,1.23
2022-12-22T05:47:09.126Z,1.00
2022-12-22T05:49:36.701Z,1.27
2022-12-22T05:52:04.227Z,0.90
2022-12-22T05:54:31.752Z,1.07
2022-12-22T05:57:00.111Z,0.83
2022-12-22T05:59:27.667Z,1.00
2022-12-22T06:01:55.215Z,1.02
2022-12-22T06:04:22.808Z,0.70
2022-12-22T06:06:50.264Z,0.70
2022-12-22T06:09:17.804Z,0.80
2022-12-22T06:11:45.405Z,0.80
2022-12-22T06:14:12.927Z,0.90
2022-12-22T06:16:41.277Z,1.10
2022-12-22T06:19:08.796Z,0.77
2022-12-22T06:21:36.330Z,0.67
2022-12-22T06:24:04.672Z,0.83
2022-12-22T06:26:33.223Z,0.80
2022-12-22T06:29:01.475Z,0.90
2022-12-22T06:31:29.050Z,1.53
2022-12-22T06:33:56.604Z,0.93
2022-12-22T06:36:24.100Z,0.90
2022-12-22T06:38:51.636Z,0.90
2022-12-22T06:41:19.209Z,1.42
2022-12-22T06:43:46.734Z,1.30
2022-12-22T06:46:14.310Z,1.20
2022-12-22T06:48:42.158Z,1.07
2022-12-22T06:51:09.693Z,2.13
2022-12-22T06:53:38.048Z,1.17
2022-12-22T06:56:05.582Z,1.07
2022-12-22T06:58:33.119Z,1.47
2022-12-22T07:01:00.635Z,1.50
2022-12-22T07:03:28.512Z,2.20
2022-12-22T07:05:55.926Z,1.30
2022-12-22T07:08:23.451Z,1.17
2022-12-22T07:10:59.779Z,1.80
2022-12-22T07:13:27.370Z,1.80
2022-12-22T07:16:00.553Z,1.40
2022-12-22T07:18:22.402Z,1.37
2022-12-22T07:20:49.977Z,1.30
2022-12-22T07:23:17.504Z,1.20
2022-12-22T07:25:45.035Z,1.57
2022-12-22T07:28:16.790Z,1.10
2022-12-22T07:30:40.907Z,1.58
2022-12-22T07:33:08.448Z,1.00
2022-12-22T07:35:37.357Z,0.90
2022-12-22T07:38:04.887Z,1.27
2022-12-22T07:40:32.603Z,0.70
2022-12-22T07:43:00.235Z,0.63
2022-12-22T07:45:27.762Z,0.70
2022-12-22T07:48:01.016Z,1.17
2022-12-22T07:50:28.599Z,0.60
2022-12-22T07:52:56.104Z,0.70
2022-12-22T07:55:23.660Z,0.80
2022-12-22T07:57:51.194Z,0.97
2022-12-22T08:00:19.555Z,1.17
2022-12-22T08:02:50.104Z,1.50
2022-12-22T08:05:18.624Z,1.80
2022-12-22T08:07:46.147Z,1.10
2022-12-22T08:10:14.444Z,1.27
2022-12-22T08:12:42.826Z,0.97
2022-12-22T08:15:10.361Z,1.50
2022-12-22T08:17:37.896Z,1.30
2022-12-22T08:20:05.541Z,1.10
2022-12-22T08:22:33.065Z,1.10
2022-12-22T08:25:00.608Z,1.27
2022-12-22T08:27:34.096Z,1.17
2022-12-22T08:30:01.618Z,1.17
2022-12-22T08:32:29.166Z,1.13
2022-12-22T08:34:57.248Z,1.30
2022-12-22T08:37:24.839Z,1.20
2022-12-22T08:39:52.365Z,1.13
2022-12-22T08:42:19.940Z,1.30
2022-12-22T08:44:47.471Z,0.97
2022-12-22T08:47:17.118Z,1.00
2022-12-22T08:49:42.600Z,1.03
2022-12-22T08:52:16.033Z,1.20
2022-12-22T08:54:37.671Z,0.87
2022-12-22T08:57:08.990Z,1.20
2022-12-22T08:59:36.505Z,0.70
2022-12-22T09:02:06.898Z,1.17
2022-12-22T09:04:34.436Z,0.97
2022-12-22T09:07:01.953Z,0.60
2022-12-22T09:09:29.467Z,0.50
2022-12-22T09:11:57.811Z,0.50
2022-12-22T09:14:25.345Z,0.37
2022-12-22T09:16:52.942Z,0.73
2022-12-22T09:19:20.620Z,0.50
2022-12-22T09:21:48.923Z,0.20
2022-12-22T09:24:16.443Z,0.30
2022-12-22T09:26:44.008Z,0.20
2022-12-22T09:29:11.573Z,0.10
2022-12-22T09:31:39.144Z,0.40
2022-12-22T09:34:09.594Z,0.47
2022-12-22T09:36:34.205Z,0.30
2022-12-22T09:39:04.775Z,0.30
2022-12-22T09:41:38.320Z,0.10
2022-12-22T09:44:05.863Z,0.40
2022-12-22T09:46:33.395Z,0.63
2022-12-22T09:49:01.761Z,0.50
2022-12-22T09:51:29.260Z,0.53
2022-12-22T09:53:59.532Z,0.47
2022-12-22T09:56:27.460Z,0.50
2022-12-22T09:58:55.002Z,0.30
2022-12-22T10:01:31.692Z,0.50
2022-12-22T10:04:01.722Z,0.20
2022-12-22T10:06:38.873Z,0.20
2022-12-22T10:09:46.080Z,0.17
2022-12-22T10:11:54.182Z,0.10
2022-12-22T10:14:21.717Z,0.30
2022-12-22T10:16:49.472Z,0.50
2022-12-22T10:19:18.010Z,0.30
2022-12-22T10:21:47.238Z,0.50
2022-12-22T10:24:18.904Z,0.30
2022-12-22T10:26:46.468Z,0.90
2022-12-22T10:29:14.871Z,0.70
2022-12-22T10:31:57.859Z,0.30
2022-12-22T10:34:26.067Z,0.30
2022-12-22T10:36:53.606Z,0.20
2022-12-22T10:39:22.841Z,0.40
2022-12-22T10:41:50.383Z,0.20
2022-12-22T10:44:17.919Z,0.30
2022-12-22T10:46:51.950Z,0.30
2022-12-22T10:49:22.206Z,0.20
2022-12-22T10:51:58.699Z,0.30
2022-12-22T10:54:32.042Z,0.27
2022-12-22T10:56:59.598Z,0.47
2022-12-22T10:59:27.161Z,0.33
2022-12-22T11:01:54.866Z,0.40
2022-12-22T11:04:25.683Z,0.40
2022-12-22T11:06:53.241Z,0.20
2022-12-22T11:09:36.141Z,0.20
2022-12-22T11:11:50.752Z,0.40
2022-12-22T11:14:40.430Z,0.30
2022-12-22T11:17:15.029Z,0.30
2022-12-22T11:19:42.491Z,0.23
2022-12-22T11:22:22.810Z,0.20
2022-12-22T11:24:55.758Z,0.30
2022-12-22T11:27:44.043Z,0.50
2022-12-22T11:30:08.842Z,0.30
2022-12-22T11:32:54.349Z,0.30
2022-12-22T11:35:30.394Z,0.50
2022-12-22T11:37:57.912Z,0.40
2022-12-22T11:40:32.589Z,0.30
2022-12-22T11:43:18.469Z,0.30
2022-12-22T11:46:07.129Z,0.40
2022-12-22T11:48:41.349Z,0.20
2022-12-22T11:51:27.314Z,0.40
2022-12-22T11:53:49.230Z,0.53
2022-12-22T11:56:26.342Z,0.47
2022-12-22T11:59:05.689Z,0.43
2022-12-22T12:01:51.697Z,0.40
2022-12-22T12:04:25.225Z,0.60
2022-12-22T12:06:55.194Z,0.60
2022-12-22T12:09:28.898Z,0.50
2022-12-22T12:12:01.857Z,0.10
2022-12-22T12:14:32.111Z,0.30
2022-12-22T12:16:59.719Z,0.40
2022-12-22T12:19:38.881Z,0.43
2022-12-22T12:22:06.723Z,0.30
2022-12-22T12:24:43.155Z,0.40
2022-12-22T12:27:29.646Z,0.43
2022-12-22T12:32:51.418Z,0.30
2022-12-22T12:35:35.111Z,0.30
2022-12-22T12:38:06.178Z,0.30
2022-12-22T12:40:48.721Z,0.50
2022-12-22T12:43:16.938Z,0.30
2022-12-22T12:45:46.396Z,0.77
2022-12-22T12:48:25.728Z,0.60
2022-12-22T12:50:56.913Z,0.50
2022-12-22T12:53:24.445Z,0.60
2022-12-22T12:55:54.518Z,0.90
2022-12-22T12:58:34.085Z,0.30
2022-12-22T13:01:01.684Z,0.43
2022-12-22T13:04:01.853Z,0.43
2022-12-22T13:05:57.553Z,0.63
2022-12-22T13:08:27.664Z,0.30
2022-12-22T13:10:55.175Z,0.50
2022-12-22T13:13:22.730Z,0.40
2022-12-22T13:15:50.358Z,0.50
2022-12-22T13:18:26.856Z,0.30
2022-12-22T13:21:26.220Z,0.20
2022-12-22T13:23:40.973Z,0.50
2022-12-22T13:26:01.363Z,0.40
2022-12-22T13:28:28.943Z,0.60
2022-12-22T13:31:05.884Z,0.30
2022-12-22T13:33:33.379Z,0.70
2022-12-22T13:36:01.696Z,1.10
2022-12-22T13:38:32.257Z,1.03
2022-12-22T13:40:59.802Z,1.13
2022-12-22T13:43:27.346Z,0.60
2022-12-22T13:45:54.880Z,0.80
2022-12-22T13:48:28.668Z,0.80
2022-12-22T13:50:56.197Z,0.70
2022-12-22T13:56:03.021Z,1.13
2022-12-22T13:58:31.335Z,1.57
2022-12-22T14:01:01.864Z,0.80
2022-12-22T14:05:57.660Z,1.10
2022-12-22T14:08:25.235Z,0.73
2022-12-22T14:10:53.542Z,0.80
2022-12-22T14:13:21.118Z,1.25
2022-12-22T14:15:48.715Z,0.67
2022-12-22T14:18:19.677Z,1.23
2022-12-22T14:20:47.211Z,1.07
2022-12-22T14:23:21.392Z,1.20
2022-12-22T14:25:48.927Z,1.13
2022-12-22T14:28:22.123Z,1.20
2022-12-22T14:30:49.732Z,1.30
2022-12-22T14:33:26.572Z,1.73
2022-12-22T14:36:06.613Z,1.80
2022-12-22T14:38:45.790Z,2.57
2022-12-22T14:41:43.384Z,2.70
2022-12-22T14:44:22.883Z,2.50
2022-12-22T14:47:05.495Z,1.60
2022-12-22T14:49:33.072Z,3.20
2022-12-22T14:52:01.508Z,2.60
2022-12-22T14:54:28.182Z,2.50
2022-12-22T14:56:55.714Z,2.70
2022-12-22T14:59:23.259Z,3.20
2022-12-22T15:02:00.028Z,3.17
2022-12-22T15:04:27.358Z,3.30
2022-12-22T15:06:54.911Z,3.87
2022-12-22T15:09:47.230Z,3.50
2022-12-22T15:11:50.785Z,4.30
2022-12-22T15:14:18.352Z,5.17
2022-12-22T15:16:46.004Z,4.23
2022-12-22T15:19:13.445Z,4.70
2022-12-22T15:21:40.989Z,4.80
2022-12-22T15:24:11.043Z,5.00
2022-12-22T15:26:38.587Z,4.90
2022-12-22T15:29:06.867Z,5.33
2022-12-22T15:31:34.865Z,4.90
2022-12-22T15:34:02.273Z,5.80
2022-12-22T15:36:29.808Z,5.40
2022-12-22T15:38:59.031Z,5.03
2022-12-22T15:41:26.555Z,5.30
2022-12-22T15:43:57.915Z,5.47
2022-12-22T15:46:21.971Z,6.07
2022-12-22T15:48:50.192Z,5.93
2022-12-22T15:51:26.384Z,6.63
2022-12-22T15:53:54.084Z,6.47
2022-12-22T15:56:21.629Z,5.87
2022-12-22T15:58:49.164Z,8.20
2022-12-22T16:01:16.771Z,6.00
2022-12-22T16:03:44.342Z,6.27
2022-12-22T16:06:14.814Z,6.13
2022-12-22T16:08:42.372Z,6.07
2022-12-22T16:11:09.898Z,7.37
2022-12-22T16:13:37.425Z,6.73
2022-12-22T16:16:05.079Z,5.97
2022-12-22T16:18:32.545Z,7.07
2022-12-22T16:21:00.090Z,7.30
2022-12-22T16:23:27.669Z,5.97
2022-12-22T16:26:00.983Z,8.32
2022-12-22T16:28:22.724Z,7.65
2022-12-22T16:30:50.368Z,6.67
2022-12-22T16:33:17.828Z,6.73
2022-12-22T16:35:45.348Z,7.57
2022-12-22T16:38:18.167Z,6.67
2022-12-22T16:40:40.459Z,5.67
2022-12-22T16:46:15.405Z,6.50
2022-12-22T16:48:43.160Z,6.10
2022-12-22T16:51:10.613Z,7.87
2022-12-22T16:53:38.157Z,7.53
2022-12-22T16:56:06.011Z,6.73
2022-12-22T16:58:33.567Z,6.50
2022-12-22T17:01:01.106Z,6.37
2022-12-22T17:03:29.790Z,8.00
2022-12-22T17:05:57.278Z,6.83
2022-12-22T17:08:24.778Z,6.47
2022-12-22T17:10:53.535Z,6.27
2022-12-22T17:13:21.062Z,6.87
2022-12-22T17:15:48.734Z,7.00
2022-12-22T17:18:19.136Z,6.57
2022-12-22T17:20:47.433Z,6.13
2022-12-22T17:23:14.963Z,7.30
2022-12-22T17:25:43.564Z,5.97
2022-12-22T17:28:11.106Z,6.53
2022-12-22T17:30:39.426Z,6.50
2022-12-22T17:33:06.972Z,6.10
2022-12-22T17:35:34.521Z,6.20
2022-12-22T17:38:02.805Z,7.53
2022-12-22T17:40:33.277Z,6.50
2022-12-22T17:43:00.796Z,4.80
2022-12-22T17:45:28.316Z,7.37
2022-12-22T17:47:56.653Z,7.17
2022-12-22T17:50:24.184Z,8.20
2022-12-22T17:52:51.705Z,6.27
2022-12-22T17:55:40.416Z,6.63
2022-12-22T17:57:47.636Z,6.00
2022-12-22T18:00:21.167Z,4.77
2022-12-22T18:02:48.808Z,5.57
2022-12-22T18:05:17.014Z,4.33
2022-12-22T18:07:44.535Z,4.47
2022-12-22T18:10:24.796Z,5.00
2022-12-22T18:12:53.082Z,3.50
2022-12-22T18:15:21.394Z,5.63
2022-12-22T18:17:48.965Z,3.47
2022-12-22T18:20:16.491Z,4.03
2022-12-22T18:22:45.403Z,4.80
2022-12-22T18:25:18.691Z,5.50
2022-12-22T18:27:46.218Z,5.80
2022-12-22T18:30:20.566Z,4.90
2022-12-22T18:32:48.145Z,4.37
2022-12-22T18:35:15.673Z,3.43
2022-12-22T18:37:43.197Z,3.63
2022-12-22T18:40:28.522Z,2.67
2022-12-22T18:42:52.955Z,2.30
2022-12-22T18:45:20.501Z,2.53
2022-12-22T18:47:48.112Z,3.00
2022-12-22T18:50:15.733Z,3.63
2022-12-22T18:52:43.989Z,2.67
2022-12-22T18:55:17.921Z,2.60
2022-12-22T18:57:45.463Z,2.27
2022-12-22T19:00:18.816Z,1.90
2022-12-22T19:02:46.507Z,2.07
2022-12-22T19:05:16.871Z,1.40
2022-12-22T19:07:45.182Z,2.35
2022-12-22T19:10:18.219Z,1.67
2022-12-22T19:12:45.747Z,1.97
2022-12-22T19:15:28.166Z,2.15
2022-12-22T19:17:55.696Z,1.97
2022-12-22T19:20:23.218Z,2.60
2022-12-22T19:22:51.544Z,2.20
2022-12-22T19:25:19.074Z,1.87
2022-12-22T19:27:47.289Z,1.90
2022-12-22T19:30:19.447Z,2.10
2022-12-22T19:32:47.148Z,2.20
2022-12-22T19:35:14.511Z,2.47
2022-12-22T19:37:43.134Z,2.30
2022-12-22T19:40:10.737Z,2.33
2022-12-22T19:42:38.283Z,2.63
2022-12-22T19:45:11.509Z,3.15
2022-12-22T19:47:33.944Z,2.00
2022-12-22T19:50:02.239Z,2.07
2022-12-22T19:52:29.830Z,2.73
2022-12-22T19:54:57.356Z,3.10
2022-12-22T19:57:25.660Z,3.70
2022-12-22T19:59:53.228Z,2.90
2022-12-22T20:02:29.928Z,1.53
2022-12-22T20:04:57.416Z,1.93
2022-12-22T20:07:25.736Z,2.65
2022-12-22T20:09:53.254Z,2.67
2022-12-22T20:12:36.634Z,2.47
2022-12-22T20:15:07.317Z,3.20
2022-12-22T20:17:35.607Z,3.20
2022-12-22T20:20:03.188Z,2.93
2022-12-22T20:22:30.720Z,3.27
2022-12-22T20:24:58.997Z,3.50
2022-12-22T20:27:29.237Z,2.90
2022-12-22T20:29:56.815Z,2.90
2022-12-22T20:32:28.140Z,2.50
2022-12-22T20:34:52.526Z,2.30
2022-12-22T20:37:20.069Z,2.73
2022-12-22T20:39:47.616Z,2.40
2022-12-22T20:42:19.006Z,2.90
2022-12-22T20:45:02.878Z,2.17
2022-12-22T20:47:21.857Z,2.13
2022-12-22T20:49:43.140Z,2.53
2022-12-22T20:52:16.124Z,2.80
2022-12-22T20:54:43.674Z,3.10
2022-12-22T20:57:15.123Z,2.57
2022-12-22T20:59:42.645Z,2.20
2022-12-22T21:02:19.144Z,2.17
2022-12-22T21:04:46.598Z,2.10
2022-12-22T21:07:14.126Z,2.97
2022-12-22T21:09:42.463Z,3.20
2022-12-22T21:12:09.998Z,1.87
2022-12-22T21:14:37.530Z,2.35
2022-12-22T21:17:05.121Z,1.97
2022-12-22T21:19:32.608Z,1.70
2022-12-22T21:22:00.142Z,2.43
2022-12-22T21:24:27.729Z,2.55
2022-12-22T21:26:55.260Z,3.20
2022-12-22T21:29:22.784Z,1.83
2022-12-22T21:31:50.383Z,2.40
2022-12-22T21:34:17.900Z,1.70
2022-12-22T21:36:45.435Z,2.67
2022-12-22T21:39:15.974Z,2.27
2022-12-22T21:42:02.178Z,2.50
2022-12-22T21:44:29.752Z,2.63
2022-12-22T21:46:57.293Z,2.67
2022-12-22T21:49:25.596Z,3.13
2022-12-22T21:51:53.527Z,3.00
2022-12-22T21:54:21.112Z,3.80
2022-12-22T21:56:48.614Z,3.70
2022-12-22T21:59:16.216Z,3.07
2022-12-22T22:01:44.580Z,5.43
2022-12-22T22:04:12.049Z,4.90
2022-12-22T22:06:40.397Z,4.13
2022-12-22T22:09:07.931Z,4.20
2022-12-22T22:11:38.122Z,4.17
2022-12-22T22:14:05.691Z,2.80
2022-12-22T22:16:33.281Z,3.13
2022-12-22T22:19:00.767Z,3.10
2022-12-22T22:21:29.112Z,4.47
2022-12-22T22:23:56.657Z,3.93
2022-12-22T22:26:24.202Z,3.67
2022-12-22T22:28:51.795Z,2.80
2022-12-22T22:31:19.349Z,3.20
2022-12-22T22:33:46.841Z,2.97
2022-12-22T22:36:15.192Z,2.47
2022-12-22T22:38:42.706Z,2.67
2022-12-22T22:41:10.255Z,2.63
2022-12-22T22:43:37.818Z,2.80
2022-12-22T22:46:05.387Z,2.80
2022-12-22T22:48:32.864Z,2.43
2022-12-22T22:51:00.441Z,2.47
2022-12-22T22:53:27.968Z,2.90
2022-12-22T22:55:55.510Z,2.07
2022-12-22T22:58:23.853Z,2.60
2022-12-22T23:00:51.400Z,3.13
2022-12-22T23:03:18.969Z,2.93
2022-12-22T23:05:46.496Z,4.28
2022-12-22T23:08:14.011Z,3.20
2022-12-22T23:10:41.969Z,3.20
2022-12-22T23:13:09.117Z,2.80
2022-12-22T23:15:37.415Z,3.97
2022-12-22T23:18:04.964Z,3.13
2022-12-22T23:20:32.524Z,3.20
2022-12-22T23:23:00.818Z,3.40
2022-12-22T23:25:28.360Z,3.00
2022-12-22T23:27:57.566Z,2.93
2022-12-22T23:30:25.089Z,2.63
2022-12-22T23:32:52.655Z,2.67
2022-12-22T23:35:20.207Z,2.50
2022-12-22T23:37:47.755Z,2.87
2022-12-22T23:40:50.410Z,3.43
2022-12-22T23:42:43.755Z,4.90
2022-12-22T23:45:11.287Z,4.37
2022-12-22T23:47:39.576Z,4.30
2022-12-22T23:50:07.918Z,4.63
2022-12-22T23:52:36.959Z,5.00
2022-12-22T23:55:04.494Z,3.67
2022-12-22T23:57:32.830Z,3.83
